Time;durP1;ratioP1;P1;durP2;ratioP2;P2;SDS_P1;SDS_P2;PMS_P1;PMS_P2;Temp;Humidity;BMP_temperature;BMP_pressure;BME280_temperature;BME280_humidity;BME280_pressure;Samples;Min_cycle;Max_cycle;Signal;HPM_P1;HPM_P2
2022/01/09 00:00:35;;;;;;;15.25;12.35;;;;;;;4.72;100.00;98751.38;7390405;19;20021;-66
2022/01/09 00:03:05;;;;;;;18.10;14.15;;;;;;;4.72;100.00;98745.34;7392247;19;20127;-68
2022/01/09 00:05:34;;;;;;;19.83;15.20;;;;;;;4.73;100.00;98742.69;7392305;19;20069;-64
2022/01/09 00:08:03;;;;;;;20.40;15.00;;;;;;;4.76;100.00;98745.09;7391483;19;20493;-67
2022/01/09 00:10:35;;;;;;;16.77;13.30;;;;;;;4.80;100.00;98743.16;7390832;19;20013;-66
2022/01/09 00:13:04;;;;;;;21.92;16.00;;;;;;;4.79;100.00;98747.53;7390305;19;20483;-65
2022/01/09 00:15:33;;;;;;;20.88;15.45;;;;;;;4.79;100.00;98742.34;7391592;19;20142;-67
2022/01/09 00:18:02;;;;;;;18.92;14.50;;;;;;;4.81;100.00;98742.25;7390294;19;20018;-67
2022/01/09 00:20:31;;;;;;;19.85;15.15;;;;;;;4.79;100.00;98729.38;7390464;19;20014;-69
2022/01/09 00:23:00;;;;;;;17.55;14.27;;;;;;;4.85;100.00;98728.19;7391704;19;20497;-65
2022/01/09 00:25:30;;;;;;;17.65;13.48;;;;;;;4.86;100.00;98724.69;7391522;19;20022;-66
2022/01/09 00:28:01;;;;;;;19.17;15.25;;;;;;;4.91;100.00;98729.63;7390848;19;20010;-66
2022/01/09 00:30:30;;;;;;;17.17;13.75;;;;;;;4.95;100.00;98731.94;7390313;19;20395;-66
2022/01/09 00:32:59;;;;;;;16.75;13.52;;;;;;;4.97;100.00;98734.47;7387939;19;20022;-68
2022/01/09 00:35:28;;;;;;;17.27;14.00;;;;;;;4.99;100.00;98737.81;7390697;19;20019;-67
2022/01/09 00:37:57;;;;;;;17.92;13.80;;;;;;;5.01;100.00;98742.03;7389608;19;20033;-66
2022/01/09 00:40:26;;;;;;;18.40;14.18;;;;;;;5.04;100.00;98746.19;7388589;19;20086;-67
2022/01/09 00:42:55;;;;;;;16.83;13.73;;;;;;;5.02;100.00;98737.66;7389751;19;20015;-67
2022/01/09 00:45:26;;;;;;;18.33;13.27;;;;;;;5.01;100.00;98741.16;7390592;19;20021;-67
2022/01/09 00:47:56;;;;;;;19.35;14.50;;;;;;;5.02;100.00;98745.44;7390689;19;20014;-67
2022/01/09 00:50:25;;;;;;;18.88;14.48;;;;;;;5.05;100.00;98747.88;7389307;19;20011;-66
2022/01/09 00:52:54;;;;;;;19.40;14.95;;;;;;;5.09;100.00;98753.75;7389279;19;20010;-69
2022/01/09 00:55:23;;;;;;;18.92;14.70;;;;;;;5.10;100.00;98755.38;7391746;19;20014;-66
2022/01/09 00:57:52;;;;;;;19.38;15.55;;;;;;;5.10;100.00;98758.84;7390542;19;20110;-65
2022/01/09 01:00:21;;;;;;;20.63;15.25;;;;;;;5.09;100.00;98759.75;7390133;19;20014;-67
2022/01/09 01:02:52;;;;;;;21.58;16.00;;;;;;;5.10;100.00;98765.78;7391762;19;20544;-67
2022/01/09 01:05:21;;;;;;;20.58;15.85;;;;;;;5.08;100.00;98775.41;7389368;19;20025;-66
2022/01/09 01:07:50;;;;;;;22.08;16.67;;;;;;;5.02;100.00;98771.41;7389668;19;20331;-66
2022/01/09 01:10:19;;;;;;;22.33;16.58;;;;;;;4.99;100.00;98775.00;7389859;19;20022;-66
2022/01/09 01:12:49;;;;;;;19.45;15.77;;;;;;;4.98;100.00;98778.50;7390103;19;20159;-66
2022/01/09 01:15:17;;;;;;;21.95;15.52;;;;;;;4.99;100.00;98795.75;7389515;19;20003;-65
2022/01/09 01:17:47;;;;;;;20.77;16.30;;;;;;;5.00;100.00;98800.03;7389236;19;20007;-66
2022/01/09 01:20:22;;;;;;;23.63;16.52;;;;;;;4.94;100.00;98804.72;7389320;19;20349;-66
2022/01/09 01:22:52;;;;;;;26.80;19.13;;;;;;;4.88;100.00;98798.09;7389247;19;20018;-65
2022/01/09 01:25:21;;;;;;;20.65;15.65;;;;;;;4.80;100.00;98808.88;7389224;19;20029;-68
2022/01/09 01:27:50;;;;;;;21.13;15.57;;;;;;;4.75;100.00;98817.81;7389434;19;20475;-65
2022/01/09 01:30:20;;;;;;;19.70;15.73;;;;;;;4.70;100.00;98825.00;7388960;19;20126;-68
2022/01/09 01:32:49;;;;;;;22.60;16.83;;;;;;;4.73;100.00;98837.81;7387882;19;20018;-66
2022/01/09 01:35:20;;;;;;;23.80;17.42;;;;;;;4.78;100.00;98844.44;7389659;19;20014;-67
2022/01/09 01:37:49;;;;;;;16.33;12.95;;;;;;;4.77;100.00;98842.78;7389253;19;20490;-65
2022/01/09 01:40:22;;;;;;;19.60;13.13;;;;;;;4.75;100.00;98859.34;7388149;19;20372;-66
2022/01/09 01:42:51;;;;;;;15.57;10.32;;;;;;;4.78;100.00;98857.41;7390420;19;20370;-65
2022/01/09 01:45:20;;;;;;;14.43;6.97;;;;;;;4.83;100.00;98860.63;7396260;19;20010;-68
2022/01/09 01:47:48;;;;;;;11.20;5.80;;;;;;;4.84;100.00;98870.09;7395981;19;20513;-66
2022/01/09 01:50:20;;;;;;;14.07;5.40;;;;;;;4.86;100.00;98870.00;7395079;19;20332;-66
2022/01/09 01:52:53;;;;;;;15.93;5.80;;;;;;;4.88;100.00;98873.34;7395431;19;20021;-66
2022/01/09 01:55:22;;;;;;;14.75;5.30;;;;;;;4.90;100.00;98881.03;7396837;19;20010;-66
2022/01/09 01:57:51;;;;;;;18.83;5.45;;;;;;;4.93;100.00;98889.53;7395489;19;20014;-66
2022/01/09 02:00:20;;;;;;;19.70;4.53;;;;;;;4.98;100.00;98912.63;7393340;19;20020;-66
2022/01/09 02:02:49;;;;;;;21.02;4.22;;;;;;;4.97;100.00;98909.22;7396503;19;20014;-66
2022/01/09 02:05:20;;;;;;;20.30;4.20;;;;;;;4.95;100.00;98897.22;7396353;19;20158;-66
2022/01/09 02:07:49;;;;;;;18.77;4.45;;;;;;;4.95;100.00;98913.63;7395069;19;20027;-66
2022/01/09 02:10:18;;;;;;;28.08;5.75;;;;;;;4.97;100.00;98905.75;7394864;19;20018;-67
2022/01/09 02:12:49;;;;;;;24.50;5.20;;;;;;;5.00;100.00;98911.66;7394531;19;20021;-65
2022/01/09 02:15:29;;;;;;;33.05;5.65;;;;;;;5.03;100.00;98911.47;7395493;19;20010;-66
2022/01/09 02:17:58;;;;;;;23.05;4.68;;;;;;;5.04;100.00;98927.88;7395331;19;20355;-65
2022/01/09 02:20:30;;;;;;;24.45;5.53;;;;;;;5.06;100.00;98922.59;7394997;19;20019;-67
2022/01/09 02:22:59;;;;;;;23.30;4.68;;;;;;;5.08;100.00;98936.38;7394630;19;20029;-68
2022/01/09 02:25:29;;;;;;;22.42;5.10;;;;;;;5.10;100.00;98918.94;7394869;19;20016;-66
2022/01/09 02:27:58;;;;;;;38.28;6.47;;;;;;;5.14;100.00;98933.44;7394977;19;20363;-67
2022/01/09 02:30:29;;;;;;;36.03;6.68;;;;;;;5.19;100.00;98931.44;7394244;19;20018;-67
2022/01/09 02:32:57;;;;;;;35.38;7.25;;;;;;;5.25;100.00;98938.06;7394082;19;20179;-68
2022/01/09 02:35:30;;;;;;;41.53;7.28;;;;;;;5.35;100.00;98960.03;7395988;19;20014;-67
2022/01/09 02:37:59;;;;;;;36.22;7.57;;;;;;;5.38;100.00;98965.06;7396535;19;20017;-67
2022/01/09 02:40:28;;;;;;;41.47;7.30;;;;;;;5.42;100.00;98979.56;7398045;19;20098;-68
2022/01/09 02:42:57;;;;;;;44.45;7.68;;;;;;;5.45;100.00;98983.78;7399479;19;20010;-67
2022/01/09 02:45:27;;;;;;;38.15;7.15;;;;;;;5.49;100.00;98980.09;7397832;19;20498;-68
2022/01/09 02:47:59;;;;;;;45.60;7.15;;;;;;;5.52;100.00;98990.31;7397891;19;20014;-70
2022/01/09 02:50:39;;;;;;;46.08;7.88;;;;;;;5.53;100.00;99005.81;7396151;19;20025;-68
2022/01/09 02:53:20;;;;;;;40.95;7.25;;;;;;;5.52;100.00;99008.50;7395814;19;20021;-69
2022/01/09 02:55:49;;;;;;;43.03;7.50;;;;;;;5.52;100.00;99017.13;7391545;19;20015;-67
2022/01/09 02:58:18;;;;;;;43.70;8.90;;;;;;;5.54;100.00;99023.09;7392653;19;20489;-67
2022/01/09 03:00:47;;;;;;;36.85;6.68;;;;;;;5.56;100.00;99030.81;7393725;19;20018;-67
2022/01/09 03:03:16;;;;;;;45.45;6.97;;;;;;;5.54;100.00;99036.09;7394881;19;20053;-67
2022/01/09 03:05:48;;;;;;;49.22;7.25;;;;;;;5.51;100.00;99038.00;7394291;19;20029;-69
2022/01/09 03:08:17;;;;;;;32.67;7.20;;;;;;;5.50;100.00;99047.56;7393149;19;20339;-67
2022/01/09 03:10:46;;;;;;;45.92;8.18;;;;;;;5.53;100.00;99059.53;7393734;19;20010;-68
2022/01/09 03:13:15;;;;;;;48.90;7.70;;;;;;;5.51;100.00;99058.78;7393162;19;20339;-66
2022/01/09 03:15:44;;;;;;;53.17;7.80;;;;;;;5.52;100.00;99065.66;7393700;19;20018;-67
2022/01/09 03:18:13;;;;;;;49.17;7.55;;;;;;;5.55;100.00;99063.72;7394358;19;20019;-67
2022/01/09 03:20:43;;;;;;;44.47;8.10;;;;;;;5.55;100.00;99068.94;7393374;19;20035;-68
2022/01/09 03:23:15;;;;;;;44.50;8.15;;;;;;;5.53;100.00;99068.19;7393650;19;20496;-67
2022/01/09 03:25:44;;;;;;;35.30;8.07;;;;;;;5.49;100.00;99081.41;7393189;19;20049;-67
2022/01/09 03:28:13;;;;;;;45.50;8.02;;;;;;;5.50;100.00;99077.88;7392404;19;20074;-68
2022/01/09 03:30:42;;;;;;;42.25;8.02;;;;;;;5.51;100.00;99079.56;7391360;19;20042;-67
2022/01/09 03:33:11;;;;;;;41.22;6.50;;;;;;;5.51;100.00;99083.00;7392013;19;20106;-66
2022/01/09 03:35:39;;;;;;;47.35;8.55;;;;;;;5.52;100.00;99089.88;7392777;19;20448;-68
2022/01/09 03:38:08;;;;;;;46.65;7.20;;;;;;;5.51;99.95;99088.19;7392522;19;20764;-67
2022/01/09 03:40:40;;;;;;;32.20;6.97;;;;;;;5.52;99.87;99096.84;7390477;19;20025;-68
2022/01/09 03:43:09;;;;;;;40.33;6.80;;;;;;;5.50;99.50;99107.31;7390718;19;20090;-67
2022/01/09 03:45:38;;;;;;;37.92;7.20;;;;;;;5.55;99.71;99114.84;7392128;19;20010;-66
2022/01/09 03:48:07;;;;;;;43.35;6.88;;;;;;;5.54;99.59;99106.25;7389426;19;20007;-67
2022/01/09 03:50:36;;;;;;;46.70;7.50;;;;;;;5.59;99.72;99118.13;7391659;19;20014;-67
2022/01/09 03:53:07;;;;;;;46.42;7.32;;;;;;;5.56;99.47;99129.53;7390139;19;20521;-68
2022/01/09 03:55:35;;;;;;;36.60;7.35;;;;;;;5.50;99.10;99122.91;7391739;19;20052;-68
2022/01/09 03:58:07;;;;;;;38.90;6.18;;;;;;;5.49;98.68;99143.75;7391362;19;20518;-66
2022/01/09 04:00:36;;;;;;;27.38;6.15;;;;;;;5.45;98.70;99150.84;7390566;19;20014;-68
2022/01/09 04:03:05;;;;;;;41.65;6.60;;;;;;;5.49;99.26;99159.34;7392766;19;20022;-68
2022/01/09 04:05:34;;;;;;;36.83;6.05;;;;;;;5.45;98.77;99166.44;7391420;19;20018;-68
2022/01/09 04:08:03;;;;;;;36.13;5.80;;;;;;;5.43;99.05;99170.88;7390776;19;20077;-67
2022/01/09 04:10:33;;;;;;;34.13;6.55;;;;;;;5.42;98.62;99178.75;7391836;19;20026;-68
2022/01/09 04:13:02;;;;;;;34.65;6.32;;;;;;;5.38;98.47;99186.66;7392660;19;20018;-69
2022/01/09 04:15:34;;;;;;;39.45;5.30;;;;;;;5.42;98.34;99183.94;7392769;19;20025;-67
2022/01/09 04:18:02;;;;;;;43.10;6.25;;;;;;;5.41;98.54;99197.84;7392386;19;20018;-67
2022/01/09 04:20:34;;;;;;;31.17;5.93;;;;;;;5.38;98.02;99196.22;7393631;19;20011;-67
2022/01/09 04:23:03;;;;;;;28.42;4.85;;;;;;;5.36;97.85;99217.09;7393510;19;20025;-68
2022/01/09 04:25:32;;;;;;;28.83;5.63;;;;;;;5.38;97.94;99209.22;7394013;19;20456;-65
2022/01/09 04:28:01;;;;;;;30.35;5.22;;;;;;;5.39;98.40;99210.91;7391926;19;20025;-67
2022/01/09 04:30:30;;;;;;;33.40;5.78;;;;;;;5.42;98.67;99228.94;7394181;19;20035;-67
2022/01/09 04:33:01;;;;;;;30.70;5.40;;;;;;;5.44;98.58;99231.44;7396332;19;20069;-69
2022/01/09 04:35:30;;;;;;;28.65;5.50;;;;;;;5.40;97.59;99240.31;7396172;19;20010;-67
2022/01/09 04:37:59;;;;;;;44.15;6.55;;;;;;;5.38;97.48;99250.78;7392562;19;20021;-69
2022/01/09 04:40:28;;;;;;;38.55;6.18;;;;;;;5.38;97.04;99240.38;7392033;19;20724;-67
2022/01/09 04:43:00;;;;;;;27.80;5.18;;;;;;;5.37;96.89;99249.94;7392225;19;20474;-69
2022/01/09 04:45:29;;;;;;;31.40;5.32;;;;;;;5.37;97.09;99265.53;7391953;19;20039;-69
2022/01/09 04:48:04;;;;;;;27.65;5.43;;;;;;;5.38;97.29;99267.19;7392504;19;20010;-67
2022/01/09 04:50:36;;;;;;;30.35;5.00;;;;;;;5.37;96.80;99277.66;7391979;19;20101;-69
2022/01/09 04:53:08;;;;;;;30.33;5.40;;;;;;;5.37;96.49;99270.72;7391225;19;20026;-67
2022/01/09 04:55:45;;;;;;;29.65;4.60;;;;;;;5.38;97.20;99280.19;7392750;19;20021;-66
2022/01/09 04:58:14;;;;;;;34.72;5.78;;;;;;;5.40;97.42;99280.09;7391511;19;20018;-68
2022/01/09 05:00:43;;;;;;;26.25;4.90;;;;;;;5.42;97.58;99287.84;7389815;19;20140;-68
2022/01/09 05:03:18;;;;;;;23.30;5.22;;;;;;;5.37;95.83;99291.50;7388090;19;20013;-68
2022/01/09 05:05:47;;;;;;;27.30;4.78;;;;;;;5.33;95.11;99317.66;7389895;19;20022;-65
2022/01/09 05:08:17;;;;;;;21.08;4.65;;;;;;;5.30;94.94;99310.03;7390198;19;20014;-68
2022/01/09 05:10:46;;;;;;;22.65;4.53;;;;;;;5.31;95.69;99311.72;7388561;19;20582;-66
2022/01/09 05:13:15;;;;;;;26.40;4.53;;;;;;;5.30;95.43;99318.69;7388167;19;20030;-68
2022/01/09 05:15:44;;;;;;;25.35;4.47;;;;;;;5.32;95.36;99331.59;7389903;19;20047;-67
2022/01/09 05:18:15;;;;;;;30.88;5.43;;;;;;;5.31;94.43;99329.91;7391827;19;20014;-68
2022/01/09 05:20:45;;;;;;;29.00;5.38;;;;;;;5.29;94.66;99345.56;7394407;19;20030;-67
2022/01/09 05:23:14;;;;;;;21.67;5.07;;;;;;;5.31;94.91;99354.09;7397057;19;20542;-70
2022/01/09 05:25:43;;;;;;;26.33;4.28;;;;;;;5.31;94.82;99361.91;7395875;19;20157;-66
2022/01/09 05:28:12;;;;;;;21.00;5.32;;;;;;;5.30;94.38;99368.03;7394036;19;20038;-69
2022/01/09 05:30:42;;;;;;;26.33;4.68;;;;;;;5.33;94.90;99387.78;7393589;19;20018;-68
2022/01/09 05:33:11;;;;;;;18.25;3.83;;;;;;;5.32;95.11;99386.13;7393454;19;20376;-67
2022/01/09 05:35:42;;;;;;;29.60;5.43;;;;;;;5.29;93.81;99389.72;7396240;19;20044;-69
2022/01/09 05:38:11;;;;;;;23.27;5.00;;;;;;;5.25;93.40;99393.34;7396315;19;20026;-68
2022/01/09 05:40:40;;;;;;;27.58;5.00;;;;;;;5.22;93.34;99396.09;7394370;19;20021;-68
2022/01/09 05:43:11;;;;;;;27.45;4.95;;;;;;;5.24;94.19;99403.81;7396921;19;20007;-67
2022/01/09 05:45:40;;;;;;;23.27;4.95;;;;;;;5.19;93.21;99409.22;7394332;19;20026;-68
2022/01/09 05:48:10;;;;;;;20.70;4.35;;;;;;;5.17;92.56;99414.47;7393124;19;20021;-67
2022/01/09 05:50:41;;;;;;;23.02;4.90;;;;;;;5.19;93.35;99414.41;7393119;19;20692;-68
2022/01/09 05:53:10;;;;;;;22.00;4.57;;;;;;;5.24;94.30;99411.59;7396514;19;20011;-68
2022/01/09 05:55:39;;;;;;;28.15;5.03;;;;;;;5.22;93.41;99423.81;7395766;19;20085;-68
2022/01/09 05:58:08;;;;;;;22.38;4.65;;;;;;;5.17;93.03;99424.00;7396185;19;20467;-68
2022/01/09 06:00:37;;;;;;;19.20;4.70;;;;;;;5.17;93.47;99431.78;7394886;19;20014;-68
2022/01/09 06:03:06;;;;;;;24.73;4.65;;;;;;;5.19;93.94;99437.78;7395507;19;20097;-67
2022/01/09 06:05:35;;;;;;;24.50;4.50;;;;;;;5.18;93.78;99443.88;7396221;19;20018;-65
2022/01/09 06:08:07;;;;;;;22.13;5.07;;;;;;;5.20;94.15;99452.44;7395948;19;20065;-67
2022/01/09 06:10:36;;;;;;;23.48;4.65;;;;;;;5.22;94.61;99457.59;7395860;19;20053;-67
2022/01/09 06:13:05;;;;;;;25.05;4.32;;;;;;;5.16;93.17;99461.28;7396369;19;20011;-67
2022/01/09 06:15:34;;;;;;;21.20;4.32;;;;;;;5.15;93.42;99462.19;7392808;19;20046;-67
2022/01/09 06:18:03;;;;;;;19.60;5.18;;;;;;;5.18;93.91;99467.25;7395047;19;20014;-67
2022/01/09 06:20:32;;;;;;;18.30;4.43;;;;;;;5.16;93.79;99467.31;7395587;19;20029;-67
2022/01/09 06:23:03;;;;;;;24.10;4.78;;;;;;;5.19;93.82;99477.56;7396009;19;20332;-67
2022/01/09 06:25:34;;;;;;;23.40;4.00;;;;;;;5.22;93.85;99478.34;7393408;19;20007;-67
2022/01/09 06:28:03;;;;;;;27.55;5.00;;;;;;;5.18;93.24;99483.66;7394631;19;20014;-68
2022/01/09 06:30:32;;;;;;;27.27;5.45;;;;;;;5.17;93.26;99482.00;7393165;19;20101;-68
2022/01/09 06:33:01;;;;;;;21.35;4.82;;;;;;;5.13;92.51;99489.97;7395329;19;20022;-68
2022/01/09 06:35:30;;;;;;;21.55;3.53;;;;;;;5.10;92.20;99480.56;7392132;19;20023;-69
2022/01/09 06:37:59;;;;;;;21.80;4.03;;;;;;;5.08;92.82;99491.94;7392906;19;20028;-68
2022/01/09 06:40:28;;;;;;;18.92;4.30;;;;;;;5.10;93.08;99493.56;7393718;19;20014;-67
2022/01/09 06:43:00;;;;;;;18.08;3.75;;;;;;;5.11;92.67;99509.97;7391121;19;20486;-66
2022/01/09 06:45:29;;;;;;;17.02;4.00;;;;;;;5.14;93.62;99507.25;7390813;19;20027;-69
2022/01/09 06:47:59;;;;;;;22.67;3.80;;;;;;;5.10;91.92;99514.31;7392957;19;20015;-65
2022/01/09 06:50:29;;;;;;;15.13;4.30;;;;;;;5.10;91.94;99511.72;7393185;19;20033;-66
2022/01/09 06:52:58;;;;;;;19.00;3.67;;;;;;;5.09;92.54;99525.63;7393317;19;20014;-65
2022/01/09 06:55:27;;;;;;;24.58;4.13;;;;;;;5.06;92.41;99525.75;7391076;19;20014;-66
2022/01/09 06:57:56;;;;;;;16.90;3.55;;;;;;;5.02;92.18;99531.97;7392623;19;20018;-66
2022/01/09 07:00:28;;;;;;;20.58;4.05;;;;;;;4.96;91.19;99535.66;7393755;19;20021;-66
2022/01/09 07:02:57;;;;;;;19.85;3.75;;;;;;;4.94;91.50;99545.28;7391220;19;20086;-66
2022/01/09 07:05:26;;;;;;;18.67;3.67;;;;;;;4.90;91.88;99558.44;7393509;19;20014;-67
2022/01/09 07:07:54;;;;;;;18.77;3.55;;;;;;;4.87;91.02;99563.75;7390733;19;20103;-65
2022/01/09 07:10:23;;;;;;;21.90;4.43;;;;;;;4.87;91.85;99559.41;7393059;19;20022;-67
2022/01/09 07:12:52;;;;;;;19.30;4.10;;;;;;;4.89;92.71;99570.59;7393432;19;20046;-66
2022/01/09 07:15:21;;;;;;;20.40;4.25;;;;;;;4.93;93.21;99576.47;7393377;19;20011;-66
2022/01/09 07:17:55;;;;;;;21.48;3.78;;;;;;;4.88;92.07;99584.47;7394561;19;20014;-67
2022/01/09 07:20:24;;;;;;;15.40;4.03;;;;;;;4.78;91.38;99585.75;7395032;19;20018;-66
2022/01/09 07:22:53;;;;;;;24.75;4.70;;;;;;;4.76;92.38;99590.16;7393031;19;20017;-66
2022/01/09 07:25:23;;;;;;;16.73;4.13;;;;;;;4.75;92.68;99596.25;7393682;19;20050;-67
2022/01/09 07:27:52;;;;;;;18.77;3.70;;;;;;;4.67;91.59;99602.59;7393422;19;20125;-68
2022/01/09 07:30:26;;;;;;;19.65;4.15;;;;;;;4.70;92.32;99608.56;7392343;19;20014;-66
2022/01/09 07:32:58;;;;;;;18.90;3.85;;;;;;;4.71;92.31;99616.28;7396556;19;20021;-67
2022/01/09 07:35:27;;;;;;;14.00;3.85;;;;;;;4.72;92.05;99620.56;7398043;19;20037;-67
2022/01/09 07:37:57;;;;;;;18.02;4.20;;;;;;;4.75;92.38;99628.22;7402576;19;20104;-67
2022/01/09 07:40:28;;;;;;;21.35;4.20;;;;;;;4.75;92.05;99625.63;7404090;19;20031;-66
2022/01/09 07:42:57;;;;;;;14.95;3.90;;;;;;;4.77;92.58;99630.75;7409656;19;20026;-66
2022/01/09 07:45:27;;;;;;;18.08;4.53;;;;;;;4.76;92.79;99637.72;7415462;19;20469;-66
2022/01/09 07:48:00;;;;;;;16.65;4.05;;;;;;;4.76;92.76;99636.88;7416935;19;20050;-66
2022/01/09 07:50:30;;;;;;;17.92;4.63;;;;;;;4.75;92.75;99646.38;7418605;19;20010;-66
2022/01/09 07:53:00;;;;;;;21.17;4.22;;;;;;;4.71;91.87;99644.81;7416519;19;20023;-70
2022/01/09 07:55:29;;;;;;;15.50;3.50;;;;;;;4.69;91.58;99651.81;7418984;19;20039;-71
2022/01/09 07:57:58;;;;;;;18.83;4.05;;;;;;;4.70;92.59;99647.47;7419117;19;20011;-69
2022/01/09 08:00:27;;;;;;;14.63;4.07;;;;;;;4.70;93.20;99650.94;7416615;19;20340;-65
2022/01/09 08:02:58;;;;;;;17.42;3.67;;;;;;;4.70;92.36;99658.72;7413650;19;20014;-67
2022/01/09 08:05:27;;;;;;;21.25;4.10;;;;;;;4.74;92.65;99654.25;7413059;19;20044;-71
2022/01/09 08:07:56;;;;;;;16.23;3.65;;;;;;;4.72;91.49;99671.63;7405295;19;20507;-66
2022/01/09 08:10:25;;;;;;;14.38;3.97;;;;;;;4.69;91.53;99670.00;7401111;19;20085;-66
2022/01/09 08:12:54;;;;;;;14.80;3.13;;;;;;;4.68;91.79;99669.16;7397336;19;20030;-67
2022/01/09 08:15:23;;;;;;;12.98;3.55;;;;;;;4.66;90.86;99686.53;7397688;19;20045;-67
2022/01/09 08:17:53;;;;;;;16.70;3.70;;;;;;;4.65;90.52;99686.56;7396966;19;20011;-67
2022/01/09 08:20:25;;;;;;;18.55;3.30;;;;;;;4.67;91.45;99690.81;7397095;19;20035;-67
2022/01/09 08:22:54;;;;;;;13.95;3.17;;;;;;;4.66;91.08;99694.28;7394979;19;20018;-69
2022/01/09 08:25:23;;;;;;;11.02;3.60;;;;;;;4.65;91.23;99696.97;7391075;19;20010;-67
2022/01/09 08:27:52;;;;;;;13.30;3.10;;;;;;;4.65;91.53;99692.59;7390336;19;20034;-67
2022/01/09 08:30:21;;;;;;;13.15;3.22;;;;;;;4.63;90.96;99702.19;7391779;19;20007;-67
2022/01/09 08:32:52;;;;;;;16.17;3.55;;;;;;;4.61;91.10;99704.03;7391429;19;20017;-69
2022/01/09 08:35:21;;;;;;;15.82;3.83;;;;;;;4.56;90.39;99707.69;7390379;19;20029;-67
2022/01/09 08:37:53;;;;;;;10.55;3.10;;;;;;;4.63;91.82;99709.16;7390187;19;20058;-70
2022/01/09 08:40:23;;;;;;;12.23;3.10;;;;;;;4.63;90.85;99703.97;7389878;19;20055;-68
2022/01/09 08:42:53;;;;;;;12.23;3.42;;;;;;;4.68;91.17;99718.47;7388687;19;20014;-69
2022/01/09 08:45:23;;;;;;;12.25;3.17;;;;;;;4.68;91.11;99715.00;7391362;19;20094;-66
2022/01/09 08:47:52;;;;;;;16.27;3.28;;;;;;;4.64;90.68;99716.88;7390348;19;20021;-68
2022/01/09 08:50:22;;;;;;;14.80;3.35;;;;;;;4.66;91.66;99719.41;7390178;19;20015;-67
2022/01/09 08:52:54;;;;;;;14.20;3.75;;;;;;;4.65;91.42;99718.53;7388793;19;20034;-71
2022/01/09 08:55:22;;;;;;;13.05;3.45;;;;;;;4.63;90.69;99717.78;7392781;19;20010;-72
2022/01/09 08:57:52;;;;;;;9.90;3.00;;;;;;;4.67;91.72;99729.72;7390307;19;20094;-71
2022/01/09 09:00:21;;;;;;;14.23;3.70;;;;;;;4.66;91.78;99725.44;7389819;19;20018;-70
2022/01/09 09:02:49;;;;;;;15.15;4.18;;;;;;;4.68;91.50;99736.63;7388541;19;20380;-70
2022/01/09 09:05:18;;;;;;;15.20;3.83;;;;;;;4.71;91.88;99732.22;7392833;19;20013;-71
2022/01/09 09:07:47;;;;;;;14.88;4.22;;;;;;;4.73;91.40;99743.34;7390668;19;20025;-71
2022/01/09 09:10:19;;;;;;;17.55;3.63;;;;;;;4.73;90.01;99744.22;7390011;19;20026;-72
2022/01/09 09:12:47;;;;;;;14.18;3.20;;;;;;;4.75;90.07;99751.94;7389454;19;20010;-71
2022/01/09 09:15:20;;;;;;;12.68;3.22;;;;;;;4.80;90.62;99750.88;7411834;19;20054;-68
2022/01/09 09:17:49;;;;;;;15.63;3.65;;;;;;;4.77;88.36;99751.00;7398523;19;20013;-71
2022/01/09 09:20:18;;;;;;;11.85;3.72;;;;;;;4.80;89.32;99755.19;7390053;19;20375;-73
2022/01/09 09:22:46;;;;;;;9.65;3.03;;;;;;;4.84;88.87;99768.03;7387846;19;20017;-71
2022/01/09 09:25:19;;;;;;;13.80;3.00;;;;;;;4.89;88.19;99769.59;7388776;19;20403;-70
2022/01/09 09:27:48;;;;;;;12.18;2.90;;;;;;;4.96;87.40;99784.88;7388856;19;20041;-71
2022/01/09 09:30:17;;;;;;;17.17;3.35;;;;;;;5.06;87.95;99782.78;7388073;19;20467;-70
2022/01/09 09:32:46;;;;;;;11.80;2.80;;;;;;;5.12;86.60;99786.91;7387380;19;20486;-71
2022/01/09 09:35:15;;;;;;;12.07;2.92;;;;;;;5.19;88.00;99796.16;7388444;19;20018;-72
2022/01/09 09:37:43;;;;;;;9.52;2.53;;;;;;;5.21;88.33;99799.53;7388478;19;20015;-72
2022/01/09 09:40:14;;;;;;;10.68;2.90;;;;;;;5.26;87.89;99813.19;7389311;19;20024;-71
2022/01/09 09:42:45;;;;;;;13.85;3.00;;;;;;;5.31;87.72;99810.41;7388225;19;20021;-71
2022/01/09 09:45:15;;;;;;;12.32;3.47;;;;;;;5.29;88.17;99815.66;7389962;19;20017;-72
2022/01/09 09:47:44;;;;;;;11.10;3.10;;;;;;;5.18;86.47;99820.41;7389306;19;20524;-70
2022/01/09 09:50:16;;;;;;;13.50;4.00;;;;;;;5.05;87.11;99827.81;7389833;19;20019;-71
2022/01/09 09:52:45;;;;;;;12.50;3.65;;;;;;;5.04;89.21;99820.94;7387933;19;20021;-71
2022/01/09 09:55:15;;;;;;;15.27;3.78;;;;;;;5.01;88.72;99832.31;7388735;19;20018;-71
2022/01/09 09:57:47;;;;;;;14.00;4.15;;;;;;;4.97;88.25;99829.84;7388998;19;20070;-71
2022/01/09 10:00:19;;;;;;;16.63;3.88;;;;;;;4.97;89.11;99835.91;7389765;19;20021;-71
2022/01/09 10:02:50;;;;;;;16.08;4.35;;;;;;;4.98;89.63;99836.75;7388338;19;20021;-71
2022/01/09 10:05:21;;;;;;;15.48;4.65;;;;;;;5.05;90.49;99839.97;7399195;19;20018;-71
2022/01/09 10:07:50;;;;;;;15.25;4.60;;;;;;;5.02;89.64;99846.13;7402194;19;20381;-72
2022/01/09 10:10:21;;;;;;;13.82;4.40;;;;;;;5.06;90.19;99852.88;7402342;19;20015;-70
2022/01/09 10:12:53;;;;;;;14.98;4.95;;;;;;;5.11;90.34;99856.16;7401044;19;20007;-72
2022/01/09 10:15:22;;;;;;;16.30;4.63;;;;;;;5.23;89.87;99852.25;7403298;19;20014;-73
2022/01/09 10:17:53;;;;;;;13.98;4.10;;;;;;;5.35;89.98;99851.78;7403618;19;20021;-70
2022/01/09 10:20:23;;;;;;;13.38;5.20;;;;;;;5.40;87.95;99854.19;7402142;19;20029;-70
2022/01/09 10:22:54;;;;;;;11.02;3.20;;;;;;;5.39;86.31;99855.13;7399335;19;20029;-70
2022/01/09 10:25:26;;;;;;;13.15;3.20;;;;;;;5.40;86.83;99854.19;7398733;19;20483;-73
2022/01/09 10:28:03;;;;;;;12.35;3.08;;;;;;;5.42;86.79;99864.56;7398525;19;20046;-69
2022/01/09 10:30:34;;;;;;;12.75;3.15;;;;;;;5.44;86.98;99854.94;7399444;19;20074;-69
2022/01/09 10:33:06;;;;;;;11.45;3.13;;;;;;;5.43;87.37;99861.03;7397268;19;20018;-70
2022/01/09 10:35:36;;;;;;;12.95;3.30;;;;;;;5.40;87.85;99877.56;7398292;19;20011;-72
2022/01/09 10:38:11;;;;;;;14.43;3.90;;;;;;;5.33;88.89;99870.91;7396166;19;20164;-72
2022/01/09 10:40:41;;;;;;;15.25;4.43;;;;;;;5.24;90.20;99877.31;7396287;19;20014;-72
2022/01/09 10:43:16;;;;;;;13.85;4.25;;;;;;;5.23;91.26;99885.16;7392696;19;20106;-71
2022/01/09 10:45:46;;;;;;;15.50;4.32;;;;;;;5.23;91.89;99892.94;7394583;19;20078;-69
2022/01/09 10:48:21;;;;;;;16.42;4.60;;;;;;;5.24;92.56;99886.88;7394888;19;20046;-71
2022/01/09 10:50:51;;;;;;;16.13;4.72;;;;;;;5.21;91.52;99893.00;7394468;19;20450;-72
2022/01/09 10:53:25;;;;;;;20.92;5.43;;;;;;;5.23;91.98;99887.75;7392351;19;20021;-72
2022/01/09 10:56:11;;;;;;;16.08;4.65;;;;;;;5.26;92.77;99891.09;7394017;19;20019;-70
2022/01/09 10:58:46;;;;;;;16.10;4.90;;;;;;;5.31;93.23;99894.34;7395307;19;20014;-71
2022/01/09 11:01:21;;;;;;;20.73;5.10;;;;;;;5.33;93.53;99897.75;7394401;19;20025;-73
2022/01/09 11:03:53;;;;;;;17.48;5.20;;;;;;;5.38;93.72;99901.00;7394092;19;20022;-70
2022/01/09 11:06:23;;;;;;;15.68;5.22;;;;;;;5.44;94.13;99904.28;7394190;19;20081;-72
2022/01/09 11:08:53;;;;;;;20.35;5.85;;;;;;;5.49;93.97;99897.19;7394307;19;20021;-72
2022/01/09 11:11:30;;;;;;;18.67;4.60;;;;;;;5.54;92.91;99896.09;7395612;19;20015;-71
2022/01/09 11:14:04;;;;;;;18.52;4.80;;;;;;;5.60;91.00;99902.81;7394538;19;20141;-71
2022/01/09 11:16:41;;;;;;;17.88;4.78;;;;;;;5.67;90.92;99898.22;7410173;19;20019;-70
2022/01/09 11:19:12;;;;;;;17.15;4.30;;;;;;;5.67;89.34;99900.81;7397766;19;20121;-71
2022/01/09 11:21:44;;;;;;;17.30;4.70;;;;;;;5.76;89.89;99899.59;7393982;19;20025;-71
2022/01/09 11:24:52;;;;;;;14.80;4.30;;;;;;;5.93;90.83;99909.34;7393285;19;20082;-72
2022/01/09 11:27:28;;;;;;;13.65;4.38;;;;;;;6.16;90.77;99908.44;7393215;19;20066;-72
2022/01/09 11:30:09;;;;;;;18.75;4.05;;;;;;;6.33;87.87;99910.34;7393493;19;20021;-71
2022/01/09 11:32:47;;;;;;;16.00;3.72;;;;;;;6.32;85.78;99916.47;7393099;19;20436;-71
2022/01/09 11:35:28;;;;;;;16.63;4.43;;;;;;;6.26;85.32;99916.72;7393560;19;20018;-70
2022/01/09 11:38:07;;;;;;;12.57;3.63;;;;;;;6.26;86.43;99921.94;7392545;19;20021;-72
2022/01/09 11:40:38;;;;;;;17.33;3.58;;;;;;;6.34;85.79;99927.66;7392262;19;20014;-71
2022/01/09 11:43:09;;;;;;;15.60;4.00;;;;;;;6.37;84.10;99930.13;7391304;19;20018;-71